createdAt,value
2018-12-19T00:02:10.136Z,14.93
2018-12-19T00:04:38.990Z,15.63
2018-12-19T00:07:07.297Z,14.65
2018-12-19T00:09:35.532Z,15.27
2018-12-19T00:12:04.036Z,14.78
2018-12-19T00:14:34.801Z,15.32
2018-12-19T00:17:02.986Z,14.73
2018-12-19T00:19:31.845Z,15.43
2018-12-19T00:22:00.410Z,15.50
2018-12-19T00:24:28.664Z,15.00
2018-12-19T00:26:58.234Z,15.23
2018-12-19T00:29:27.124Z,15.23
2018-12-19T00:31:55.466Z,16.32
2018-12-19T00:34:23.712Z,15.20
2018-12-19T00:36:51.988Z,16.37
2018-12-19T00:39:20.230Z,15.13
2018-12-19T00:41:48.897Z,15.43
2018-12-19T00:44:17.603Z,15.75
2018-12-19T00:46:45.897Z,15.55
2018-12-19T00:49:14.252Z,15.05
2018-12-19T00:51:42.618Z,15.48
2018-12-19T00:54:10.878Z,15.43
2018-12-19T00:56:39.209Z,15.58
2018-12-19T00:59:07.435Z,15.53
2018-12-19T01:01:35.739Z,15.65
2018-12-19T01:04:04.110Z,16.50
2018-12-19T01:06:32.440Z,15.90
2018-12-19T01:09:00.710Z,15.95
2018-12-19T01:11:29.281Z,15.95
2018-12-19T01:13:57.818Z,16.67
2018-12-19T01:16:26.269Z,16.23
2018-12-19T01:18:54.517Z,15.40
2018-12-19T01:21:22.762Z,16.10
2018-12-19T01:23:51.061Z,16.73
2018-12-19T01:26:19.386Z,15.90
2018-12-19T01:28:48.313Z,15.75
2018-12-19T01:31:16.596Z,15.80
2018-12-19T01:33:44.867Z,16.02
2018-12-19T01:36:13.167Z,15.30
2018-12-19T01:38:41.496Z,15.32
2018-12-19T01:41:10.336Z,16.05
2018-12-19T01:43:38.686Z,15.65
2018-12-19T01:46:06.964Z,15.73
2018-12-19T01:48:35.295Z,15.88
2018-12-19T01:51:03.638Z,15.40
2018-12-19T01:53:32.159Z,16.12
2018-12-19T01:56:00.439Z,16.50
2018-12-19T01:58:28.731Z,14.38
2018-12-19T02:00:57.080Z,15.93
2018-12-19T02:03:25.388Z,15.40
2018-12-19T02:05:53.694Z,15.48
2018-12-19T02:08:21.969Z,14.90
2018-12-19T02:10:50.616Z,14.87
2018-12-19T02:13:19.438Z,15.20
2018-12-19T02:15:47.804Z,15.08
2018-12-19T02:18:16.046Z,14.87
2018-12-19T02:20:45.198Z,15.32
2018-12-19T02:23:13.468Z,14.93
2018-12-19T02:25:41.837Z,14.35
2018-12-19T02:28:10.494Z,13.80
2018-12-19T02:30:39.089Z,14.05
2018-12-19T02:33:07.399Z,13.68
2018-12-19T02:35:35.986Z,14.60
2018-12-19T02:38:04.307Z,14.50
2018-12-19T02:40:32.582Z,13.40
2018-12-19T02:43:00.912Z,14.03
2018-12-19T02:45:29.279Z,14.90
2018-12-19T02:47:57.606Z,13.43
2018-12-19T02:50:26.101Z,13.50
2018-12-19T02:52:54.429Z,13.93
2018-12-19T02:55:22.740Z,14.45
2018-12-19T02:57:51.022Z,14.25
2018-12-19T03:00:19.759Z,13.45
2018-12-19T03:02:48.073Z,13.85
2018-12-19T03:05:16.415Z,13.98
2018-12-19T03:07:44.724Z,13.30
2018-12-19T03:10:13.461Z,14.23
2018-12-19T03:12:41.889Z,13.38
2018-12-19T03:15:10.250Z,12.85
2018-12-19T03:17:38.557Z,12.53
2018-12-19T03:20:07.097Z,13.00
2018-12-19T03:22:35.646Z,13.50
2018-12-19T03:25:04.051Z,12.80
2018-12-19T03:27:33.904Z,13.38
2018-12-19T03:30:02.332Z,13.13
2018-12-19T03:32:30.926Z,12.63
2018-12-19T03:34:59.737Z,12.83
2018-12-19T03:37:28.068Z,13.00
2018-12-19T03:39:56.565Z,13.00
2018-12-19T03:42:24.792Z,12.82
2018-12-19T03:44:53.141Z,12.98
2018-12-19T03:47:21.771Z,13.20
2018-12-19T03:49:50.439Z,13.40
2018-12-19T03:52:18.841Z,13.40
2018-12-19T03:54:47.179Z,13.40
2018-12-19T03:57:15.839Z,13.40
2018-12-19T03:59:44.203Z,12.93
2018-12-19T04:02:12.499Z,13.13
2018-12-19T04:04:40.800Z,12.90
2018-12-19T04:07:09.091Z,13.58
2018-12-19T04:09:37.846Z,12.90
2018-12-19T04:12:06.088Z,12.80
2018-12-19T04:14:34.368Z,12.93
2018-12-19T04:17:03.020Z,13.93
2018-12-19T04:19:31.317Z,12.90
2018-12-19T04:21:59.576Z,13.58
2018-12-19T04:24:27.945Z,14.00
2018-12-19T04:26:56.348Z,13.95
2018-12-19T04:29:25.110Z,13.50
2018-12-19T04:31:54.274Z,11.20
2018-12-19T04:34:22.548Z,12.95
2018-12-19T04:36:50.803Z,13.30
2018-12-19T04:39:19.646Z,13.10
2018-12-19T04:41:47.953Z,13.20
2018-12-19T04:44:16.311Z,12.65
2018-12-19T04:46:44.550Z,12.78
2018-12-19T04:49:12.893Z,13.22
2018-12-19T04:51:41.552Z,13.15
2018-12-19T04:54:09.834Z,12.65
2018-12-19T04:56:38.118Z,13.25
2018-12-19T04:59:06.676Z,13.10
2018-12-19T05:01:36.279Z,13.05
2018-12-19T05:04:04.662Z,13.43
2018-12-19T05:06:32.910Z,13.28
2018-12-19T05:09:01.136Z,12.85
2018-12-19T05:11:29.986Z,13.65
2018-12-19T05:13:58.197Z,13.45
2018-12-19T05:16:27.121Z,13.10
2018-12-19T05:18:55.364Z,13.22
2018-12-19T05:21:23.622Z,12.93
2018-12-19T05:23:52.023Z,13.68
2018-12-19T05:26:20.422Z,13.25
2018-12-19T05:28:49.460Z,13.95
2018-12-19T05:31:17.822Z,13.57
2018-12-19T05:33:53.481Z,13.32
2018-12-19T05:36:22.804Z,13.65
2018-12-19T05:38:52.521Z,13.30
2018-12-19T05:41:21.553Z,13.53
2018-12-19T05:43:49.803Z,13.68
2018-12-19T05:46:18.746Z,13.75
2018-12-19T05:48:47.064Z,13.70
2018-12-19T05:51:15.450Z,13.40
2018-12-19T05:53:43.817Z,13.53
2018-12-19T05:56:12.128Z,13.88
2018-12-19T05:58:40.433Z,13.33
2018-12-19T06:01:08.712Z,14.30
2018-12-19T06:03:36.984Z,14.07
2018-12-19T06:06:06.496Z,13.00
2018-12-19T06:08:34.815Z,13.18
2018-12-19T06:11:03.057Z,13.93
2018-12-19T06:13:31.307Z,14.35
2018-12-19T06:15:59.529Z,13.83
2018-12-19T06:18:27.834Z,13.80
2018-12-19T06:20:56.110Z,14.28
2018-12-19T06:23:24.391Z,14.43
2018-12-19T06:25:52.717Z,14.70
2018-12-19T06:28:20.978Z,14.38
2018-12-19T06:30:49.360Z,13.95
2018-12-19T06:33:17.677Z,15.93
2018-12-19T06:35:46.011Z,14.18
2018-12-19T06:38:14.367Z,14.83
2018-12-19T06:40:43.062Z,14.95
2018-12-19T06:43:11.316Z,14.98
2018-12-19T06:45:39.513Z,15.32
2018-12-19T06:48:08.099Z,15.20
2018-12-19T06:50:36.373Z,15.32
2018-12-19T06:53:04.669Z,15.55
2018-12-19T06:55:32.874Z,14.78
2018-12-19T06:58:01.325Z,15.28
2018-12-19T07:00:29.666Z,14.95
2018-12-19T07:02:57.935Z,15.00
2018-12-19T07:05:26.307Z,15.85
2018-12-19T07:07:54.654Z,15.93
2018-12-19T07:10:24.321Z,14.73
2018-12-19T07:12:52.864Z,15.53
2018-12-19T07:15:22.003Z,15.83
2018-12-19T07:17:50.493Z,15.53
2018-12-19T07:20:18.783Z,16.65
2018-12-19T07:22:47.733Z,16.23
2018-12-19T07:25:16.225Z,16.10
2018-12-19T07:27:44.532Z,16.52
2018-12-19T07:30:13.906Z,16.00
2018-12-19T07:32:42.236Z,15.45
2018-12-19T07:35:10.553Z,16.67
2018-12-19T07:37:38.829Z,15.95
2018-12-19T07:40:07.225Z,16.35
2018-12-19T07:42:35.455Z,16.48
2018-12-19T07:45:04.060Z,16.05
2018-12-19T07:47:32.397Z,16.40
2018-12-19T07:50:00.952Z,15.90
2018-12-19T07:52:29.195Z,16.20
2018-12-19T07:54:57.794Z,16.97
2018-12-19T07:57:26.152Z,16.50
2018-12-19T07:59:54.493Z,15.83
2018-12-19T08:02:22.803Z,16.30
2018-12-19T08:04:51.973Z,15.55
2018-12-19T08:07:20.255Z,16.02
2018-12-19T08:09:48.556Z,15.80
2018-12-19T08:12:16.849Z,15.90
2018-12-19T08:14:45.078Z,15.73
2018-12-19T08:17:13.404Z,15.60
2018-12-19T08:19:41.703Z,15.97
2018-12-19T08:22:09.934Z,15.90
2018-12-19T08:24:38.215Z,15.23
2018-12-19T08:27:06.484Z,16.42
2018-12-19T08:29:34.678Z,16.17
2018-12-19T08:32:03.066Z,15.50
2018-12-19T08:34:31.264Z,15.50
2018-12-19T08:36:59.610Z,15.88
2018-12-19T08:39:28.607Z,15.40
2018-12-19T08:41:56.984Z,15.68
2018-12-19T08:44:26.561Z,15.88
2018-12-19T08:46:55.173Z,15.72
2018-12-19T08:49:23.556Z,15.40
2018-12-19T08:51:51.884Z,15.83
2018-12-19T08:54:20.208Z,15.88
2018-12-19T08:56:48.671Z,16.07
2018-12-19T08:59:16.967Z,16.17
2018-12-19T09:01:45.302Z,15.68
2018-12-19T09:04:13.603Z,15.38
2018-12-19T09:06:41.899Z,15.45
2018-12-19T09:09:10.699Z,15.65
2018-12-19T09:11:38.977Z,16.05
2018-12-19T09:14:07.321Z,14.93
2018-12-19T09:16:35.612Z,14.68
2018-12-19T09:19:04.050Z,15.05
2018-12-19T09:21:32.368Z,14.93
2018-12-19T09:24:00.725Z,15.53
2018-12-19T09:26:29.361Z,15.50
2018-12-19T09:28:57.579Z,15.32
2018-12-19T09:31:25.996Z,16.23
2018-12-19T09:33:54.367Z,15.08
2018-12-19T09:36:22.745Z,15.70
2018-12-19T09:38:51.093Z,15.72
2018-12-19T09:41:19.707Z,15.30
2018-12-19T09:43:48.222Z,14.70
2018-12-19T09:46:16.468Z,14.73
2018-12-19T09:48:44.736Z,14.98
2018-12-19T09:51:13.109Z,14.33
2018-12-19T09:53:41.574Z,13.38
2018-12-19T09:56:09.833Z,13.55
2018-12-19T09:58:38.206Z,12.93
2018-12-19T10:01:06.541Z,12.78
2018-12-19T10:03:34.964Z,13.20
2018-12-19T10:06:03.406Z,13.18
2018-12-19T10:08:31.782Z,12.63
2018-12-19T10:11:00.200Z,12.63
2018-12-19T10:13:28.498Z,12.18
2018-12-19T10:15:56.754Z,12.80
2018-12-19T10:18:26.672Z,12.45
2018-12-19T10:20:55.044Z,11.85
2018-12-19T10:23:23.587Z,12.73
2018-12-19T10:26:26.954Z,12.65
2018-12-19T10:28:55.281Z,11.90
2018-12-19T10:31:24.387Z,12.23
2018-12-19T10:33:52.594Z,12.80
2018-12-19T10:36:25.132Z,12.70
2018-12-19T10:38:53.525Z,12.50
2018-12-19T10:41:25.552Z,12.78
2018-12-19T10:43:53.647Z,11.97
2018-12-19T10:46:22.006Z,12.73
2018-12-19T10:48:51.249Z,12.55
2018-12-19T10:51:19.524Z,12.57
2018-12-19T10:53:47.830Z,12.35
2018-12-19T10:56:16.226Z,11.83
2018-12-19T10:58:45.080Z,12.63
2018-12-19T11:01:13.733Z,12.33
2018-12-19T11:03:42.121Z,12.30
2018-12-19T11:06:11.966Z,12.13
2018-12-19T11:08:40.423Z,11.80
2018-12-19T11:11:08.796Z,12.00
2018-12-19T11:13:37.125Z,11.45
2018-12-19T11:16:05.990Z,11.55
2018-12-19T11:18:34.242Z,11.40
2018-12-19T11:21:03.923Z,12.10
2018-12-19T11:23:32.504Z,11.30
2018-12-19T11:26:01.248Z,12.07
2018-12-19T11:28:30.310Z,11.50
2018-12-19T11:30:58.669Z,12.00
2018-12-19T11:33:26.954Z,11.95
2018-12-19T11:35:55.985Z,11.53
2018-12-19T11:38:24.297Z,11.40
2018-12-19T11:40:53.222Z,10.60
2018-12-19T11:43:21.558Z,11.65
2018-12-19T11:45:49.827Z,11.53
2018-12-19T11:48:18.116Z,10.63
2018-12-19T11:50:46.439Z,10.97
2018-12-19T11:53:14.699Z,11.22
2018-12-19T11:55:44.102Z,11.80
2018-12-19T11:58:12.685Z,11.20
2018-12-19T12:00:41.135Z,10.20
2018-12-19T12:03:09.522Z,11.35
2018-12-19T12:05:37.750Z,12.33
2018-12-19T12:08:06.336Z,11.80
2018-12-19T12:10:34.862Z,11.50
2018-12-19T12:13:03.128Z,11.77
2018-12-19T12:15:31.537Z,11.63
2018-12-19T12:17:59.775Z,11.05
2018-12-19T12:20:28.072Z,12.03
2018-12-19T12:22:56.845Z,10.80
2018-12-19T12:25:27.341Z,10.85
2018-12-19T12:27:55.549Z,11.18
2018-12-19T12:30:24.242Z,11.05
2018-12-19T12:32:52.885Z,11.25
2018-12-19T12:35:21.236Z,11.73
2018-12-19T12:37:50.448Z,10.95
2018-12-19T12:40:20.038Z,11.20
2018-12-19T12:42:48.290Z,11.50
2018-12-19T12:45:16.592Z,11.48
2018-12-19T12:47:45.184Z,11.73
2018-12-19T12:50:13.451Z,11.15
2018-12-19T12:52:42.515Z,11.68
2018-12-19T12:55:10.770Z,10.77
2018-12-19T12:57:44.048Z,10.48
2018-12-19T13:00:12.470Z,11.00
2018-12-19T13:02:40.782Z,10.90
2018-12-19T13:05:09.175Z,11.08
2018-12-19T13:07:37.482Z,11.05
2018-12-19T13:10:06.804Z,10.68
2018-12-19T13:12:35.108Z,10.72
2018-12-19T13:15:03.573Z,10.38
2018-12-19T13:17:31.823Z,10.90
2018-12-19T13:20:00.121Z,10.88
2018-12-19T13:22:29.346Z,10.80
2018-12-19T13:24:57.662Z,11.00
2018-12-19T13:27:25.985Z,10.60
2018-12-19T13:29:57.927Z,10.98
2018-12-19T13:32:26.289Z,10.53
2018-12-19T13:34:54.922Z,10.82
2018-12-19T13:37:23.487Z,10.72
2018-12-19T13:39:52.383Z,11.08
2018-12-19T13:42:20.690Z,10.95
2018-12-19T13:44:49.388Z,11.12
2018-12-19T13:47:17.651Z,10.98
2018-12-19T13:49:45.926Z,11.83
2018-12-19T13:52:14.312Z,11.12
2018-12-19T13:54:43.126Z,10.77
2018-12-19T13:57:11.445Z,11.55
2018-12-19T13:59:40.171Z,11.70
2018-12-19T14:02:08.471Z,11.73
2018-12-19T14:04:37.122Z,11.68
2018-12-19T14:07:06.318Z,11.63
2018-12-19T14:09:34.680Z,11.73
2018-12-19T14:12:03.132Z,12.28
2018-12-19T14:14:31.506Z,11.45
2018-12-19T14:17:00.247Z,11.22
2018-12-19T14:19:28.519Z,11.28
2018-12-19T14:21:56.829Z,10.18
2018-12-19T14:24:25.125Z,10.77
2018-12-19T14:26:53.359Z,11.00
2018-12-19T14:29:22.096Z,10.50
2018-12-19T14:31:50.379Z,11.35
2018-12-19T14:34:19.430Z,11.03
2018-12-19T14:36:48.314Z,10.58
2018-12-19T14:39:16.896Z,10.30
2018-12-19T14:41:45.481Z,10.83
2018-12-19T14:44:13.907Z,10.50
2018-12-19T14:46:42.342Z,11.08
2018-12-19T14:49:13.987Z,10.85
2018-12-19T14:51:41.628Z,10.40
2018-12-19T14:54:10.466Z,10.05
2018-12-19T14:56:38.889Z,10.23
2018-12-19T14:59:07.731Z,10.55
2018-12-19T15:01:37.183Z,10.43
2018-12-19T15:04:06.029Z,10.50
2018-12-19T15:06:35.099Z,10.93
2018-12-19T15:09:05.309Z,10.53
2018-12-19T15:11:33.888Z,10.20
2018-12-19T15:14:02.540Z,11.18
2018-12-19T15:16:31.267Z,10.80
2018-12-19T15:18:59.587Z,10.68
2018-12-19T15:21:28.013Z,11.08
2018-12-19T15:23:56.362Z,10.82
2018-12-19T15:26:24.690Z,11.30
2018-12-19T15:28:53.050Z,10.93
2018-12-19T15:31:21.411Z,10.65
2018-12-19T15:33:49.726Z,10.10
2018-12-19T15:36:19.341Z,10.53
2018-12-19T15:38:47.616Z,10.45
2018-12-19T15:41:15.937Z,10.37
2018-12-19T15:43:45.654Z,10.72
2018-12-19T15:46:13.947Z,10.70
2018-12-19T15:48:42.263Z,10.35
2018-12-19T15:51:10.501Z,10.80
2018-12-19T15:53:38.781Z,10.80
2018-12-19T15:56:07.174Z,10.70
2018-12-19T15:58:35.779Z,11.50
2018-12-19T16:01:04.113Z,10.53
2018-12-19T16:03:32.349Z,11.03
2018-12-19T16:06:03.162Z,11.35
2018-12-19T16:08:32.124Z,11.37
2018-12-19T16:11:00.640Z,10.60
2018-12-19T16:13:29.309Z,11.57
2018-12-19T16:16:01.618Z,11.22
2018-12-19T16:18:29.895Z,10.63
2018-12-19T16:20:58.192Z,10.98
2018-12-19T16:23:26.858Z,10.98
2018-12-19T16:25:55.152Z,10.85
2018-12-19T16:28:23.902Z,10.58
2018-12-19T16:30:52.448Z,10.48
2018-12-19T16:33:20.770Z,10.78
2018-12-19T16:35:49.304Z,11.22
2018-12-19T16:38:18.393Z,11.68
2018-12-19T16:40:47.045Z,11.08
2018-12-19T16:43:15.405Z,11.35
2018-12-19T16:45:43.788Z,10.72
2018-12-19T16:48:12.136Z,10.95
2018-12-19T16:50:40.955Z,11.30
2018-12-19T16:53:09.543Z,11.18
2018-12-19T16:55:37.903Z,10.90
2018-12-19T16:58:06.579Z,10.93
2018-12-19T17:00:35.757Z,10.88
2018-12-19T17:03:04.558Z,11.55
2018-12-19T17:05:32.840Z,11.40
2018-12-19T17:08:01.338Z,11.43
2018-12-19T17:10:29.737Z,11.00
2018-12-19T17:12:58.043Z,11.00
2018-12-19T17:15:26.736Z,10.80
2018-12-19T17:17:55.088Z,10.60
2018-12-19T17:20:31.648Z,11.28
2018-12-19T17:22:59.963Z,11.25
2018-12-19T17:25:28.196Z,11.20
2018-12-19T17:27:56.559Z,11.35
2018-12-19T17:30:24.942Z,11.35
2018-12-19T17:32:53.369Z,11.63
2018-12-19T17:35:21.693Z,11.08
2018-12-19T17:37:50.300Z,11.75
2018-12-19T17:40:18.696Z,11.68
2018-12-19T17:42:47.702Z,11.80
2018-12-19T17:45:16.009Z,11.75
2018-12-19T17:47:44.365Z,10.72
2018-12-19T17:50:12.686Z,11.15
2018-12-19T17:52:42.110Z,11.57
2018-12-19T17:55:10.692Z,11.97
2018-12-19T17:57:39.077Z,11.30
2018-12-19T18:00:07.612Z,11.22
2018-12-19T18:02:35.840Z,11.38
2018-12-19T18:05:04.461Z,11.68
2018-12-19T18:07:33.861Z,11.65
2018-12-19T18:10:02.171Z,11.90
2018-12-19T18:12:30.450Z,12.00
2018-12-19T18:14:58.713Z,11.30
2018-12-19T18:17:26.968Z,12.13
2018-12-19T18:19:55.331Z,11.80
2018-12-19T18:22:24.118Z,12.73
2018-12-19T18:24:52.545Z,12.03
2018-12-19T18:27:20.774Z,11.73
2018-12-19T18:29:49.121Z,12.37
2018-12-19T18:32:17.382Z,11.70
2018-12-19T18:34:45.780Z,12.07
2018-12-19T18:37:14.139Z,12.07
2018-12-19T18:39:42.533Z,11.88
2018-12-19T18:42:10.828Z,12.90
2018-12-19T18:44:39.130Z,11.65
2018-12-19T18:47:08.285Z,12.77
2018-12-19T18:49:36.654Z,12.60
2018-12-19T18:52:05.034Z,12.15
2018-12-19T18:54:33.372Z,12.20
2018-12-19T18:57:01.786Z,12.33
2018-12-19T18:59:30.167Z,12.82
2018-12-19T19:01:58.556Z,12.75
2018-12-19T19:04:26.782Z,12.30
2018-12-19T19:06:55.220Z,12.00
2018-12-19T19:09:23.641Z,13.08
2018-12-19T19:11:51.841Z,13.28
2018-12-19T19:14:20.130Z,12.88
2018-12-19T19:16:48.641Z,13.00
2018-12-19T19:19:16.943Z,13.22
2018-12-19T19:21:45.259Z,12.47
2018-12-19T19:24:13.531Z,12.63
2018-12-19T19:26:41.821Z,13.10
2018-12-19T19:29:10.103Z,12.40
2018-12-19T19:31:38.795Z,12.18
2018-12-19T19:34:07.143Z,12.73
2018-12-19T19:36:35.561Z,12.55
2018-12-19T19:39:06.410Z,12.93
2018-12-19T19:41:34.743Z,12.80
2018-12-19T19:44:03.287Z,12.93
2018-12-19T19:46:31.706Z,13.28
2018-12-19T19:49:00.047Z,13.50
2018-12-19T19:51:28.385Z,12.78
2018-12-19T19:53:57.211Z,12.82
2018-12-19T19:56:25.501Z,13.22
2018-12-19T19:58:54.319Z,13.27
2018-12-19T20:01:23.053Z,12.30
2018-12-19T20:03:51.912Z,13.13
2018-12-19T20:06:20.198Z,13.83
2018-12-19T20:08:49.113Z,13.22
2018-12-19T20:11:17.369Z,12.98
2018-12-19T20:13:45.713Z,12.82
2018-12-19T20:16:14.058Z,12.70
2018-12-19T20:18:42.852Z,12.70
2018-12-19T20:21:11.105Z,13.38
2018-12-19T20:23:39.501Z,13.40
2018-12-19T20:26:08.525Z,13.28
2018-12-19T20:28:37.422Z,13.38
2018-12-19T20:31:05.817Z,13.32
2018-12-19T20:33:34.144Z,13.43
2018-12-19T20:36:02.866Z,13.08
2018-12-19T20:38:31.997Z,13.25
2018-12-19T20:41:00.299Z,12.73
2018-12-19T20:43:28.581Z,12.93
2018-12-19T20:45:57.013Z,13.55
2018-12-19T20:48:25.384Z,13.88
2018-12-19T20:50:53.833Z,13.18
2018-12-19T20:53:22.157Z,13.40
2018-12-19T20:55:50.520Z,13.75
2018-12-19T20:58:19.238Z,13.37
2018-12-19T21:00:47.971Z,13.35
2018-12-19T21:03:16.357Z,13.68
2018-12-19T21:05:44.972Z,14.10
2018-12-19T21:08:13.298Z,13.70
2018-12-19T21:10:41.711Z,13.38
2018-12-19T21:13:10.041Z,13.65
2018-12-19T21:15:38.366Z,13.63
2018-12-19T21:18:12.192Z,13.60
2018-12-19T21:20:40.526Z,14.50
2018-12-19T21:23:09.159Z,13.18
2018-12-19T21:25:37.821Z,13.68
2018-12-19T21:28:06.525Z,13.70
2018-12-19T21:30:34.803Z,14.43
2018-12-19T21:33:03.106Z,14.07
2018-12-19T21:35:31.460Z,13.63
2018-12-19T21:37:59.700Z,13.80
2018-12-19T21:40:28.031Z,14.05
2018-12-19T21:42:56.607Z,13.65
2018-12-19T21:45:25.013Z,13.20
2018-12-19T21:47:53.335Z,13.70
2018-12-19T21:50:22.066Z,13.98
2018-12-19T21:52:50.329Z,14.38
2018-12-19T21:55:18.725Z,13.48
2018-12-19T21:57:47.400Z,14.05
2018-12-19T22:00:22.083Z,14.40
2018-12-19T22:02:50.380Z,13.80
2018-12-19T22:05:18.812Z,13.78
2018-12-19T22:07:47.094Z,13.77
2018-12-19T22:10:15.488Z,13.80
2018-12-19T22:12:44.492Z,14.18
2018-12-19T22:15:13.336Z,13.97
2018-12-19T22:17:50.238Z,14.07
2018-12-19T22:20:18.890Z,13.62
2018-12-19T22:22:47.568Z,14.07
2018-12-19T22:25:16.726Z,14.03
2018-12-19T22:27:45.049Z,13.65
2018-12-19T22:30:13.630Z,14.20
2018-12-19T22:32:42.128Z,14.47
2018-12-19T22:35:10.514Z,14.73
2018-12-19T22:37:38.902Z,14.93
2018-12-19T22:40:09.034Z,14.85
2018-12-19T22:42:37.447Z,14.87
2018-12-19T22:45:06.123Z,14.75
2018-12-19T22:47:34.598Z,14.53
2018-12-19T22:50:03.061Z,14.35
2018-12-19T22:52:31.445Z,15.00
2018-12-19T22:55:00.208Z,14.73
2018-12-19T22:57:28.585Z,14.28
2018-12-19T22:59:57.019Z,14.67
2018-12-19T23:02:30.957Z,14.83
2018-12-19T23:04:59.483Z,14.95
2018-12-19T23:07:27.850Z,15.45
2018-12-19T23:09:56.126Z,15.35
2018-12-19T23:12:24.518Z,15.70
2018-12-19T23:14:53.093Z,15.95
2018-12-19T23:17:27.165Z,15.38
2018-12-19T23:19:55.529Z,15.90
2018-12-19T23:22:23.811Z,15.57
2018-12-19T23:24:52.243Z,15.53
2018-12-19T23:27:22.295Z,16.07
2018-12-19T23:29:50.787Z,15.05
2018-12-19T23:32:24.035Z,14.98
2018-12-19T23:34:52.448Z,15.35
2018-12-19T23:37:21.022Z,15.68
2018-12-19T23:39:51.499Z,16.25
2018-12-19T23:42:20.240Z,16.00
2018-12-19T23:44:48.784Z,15.55
2018-12-19T23:47:17.197Z,15.90
2018-12-19T23:49:45.496Z,16.53
2018-12-19T23:52:14.139Z,16.42
2018-12-19T23:54:42.537Z,16.80
2018-12-19T23:57:10.821Z,16.48
2018-12-19T23:59:39.054Z,16.87
